Marechal Cunha Machado International Airport
SBSL : rendu visible

Aérodrome :











RETROUVEZ-NOUS SUR...

 
LOGIN :

S'inscrire | Disclaimer

   EN    FR    IT 

 









Légende :    VFR   VFR Marginal   IFR   IFR Intensif   IFR Très Intensif
Visi : 
Plafond : 
>= 8 km
>= 3000ft
5 à 8 km
1000 à 3000 ft
1500m à 5 km
500 à 1000 ft
800 à 1500m
200 à 500 ft
< 800m
< 200 ft
Symboles :   Orages  Brouillard  Fortes neiges  Fortes précipitations  Vent > 20 kt






- Altitude de l'aérodrome : 178 ft
- Code IATA : SLZ


SBSL - Marechal Cunha Machado International

DERNIER METAR :
  • 041800Z 05012KT 9999 SCT015 26/24 Q1009

METARs EXPIRÉS :
  • 041700Z 05017KT 6000 -RA SCT008 BKN015 26/25 Q1009 RETS
  • 041600Z 10009G26KT 5000 -TSRA BKN025 FEW030CB 26/26 Q1010

TAF TAF SBSL
Valide du 04 à 18h jusqu'au 05 à 18h UTC


041600Z 0418/0518 07010KT 7000 BKN020 FEW027TCU TN24/0510Z TX30/0517Z
BECMG 0423/0502 10005KT 8000 SCT017
BECMG 0503/0506 16005KT SCT012
BECMG 0510/0512 07010KT SCT015
BECMG 0513/0515 BKN020 FEW027TCU
TEMPO 0515/0517 7000 TSRA BKN020 FEW027CB RMK PHC



MET'MAP, la Météo Aéronautique d'un coup d'oeil ! - Copyright ORBIFLY Décembre 2007 - Disclaimer

ORBIFLY MET'MAP TEAM :

Programmation & Développement : Alexandra Zaïnal
Sur une idée originale de : Baudouin d'Aumeries
Assistance à la programmation : Marc-Olivier Méhu
Soutien technique & logistique : Manuel Goepfert

Contact : metmap@orbifly.com




SOURCES & CREDITS :

   NOAA       Earth
Advisory